sensor_id;sensor_type;location;lat;lon;timestamp;pressure;altitude;pressure_sealevel;temperature
28905;BMP280;60848;53.884;11.446;2023-11-18T00:00:43;102046.75;;;8.10
28905;BMP280;60848;53.884;11.446;2023-11-18T00:03:11;102043.38;;;8.10
28905;BMP280;60848;53.884;11.446;2023-11-18T00:05:40;102053.03;;;8.09
28905;BMP280;60848;53.884;11.446;2023-11-18T00:08:09;102055.63;;;8.09
28905;BMP280;60848;53.884;11.446;2023-11-18T00:10:37;102060.69;;;8.14
28905;BMP280;60848;53.884;11.446;2023-11-18T00:13:06;102058.06;;;8.14
28905;BMP280;60848;53.884;11.446;2023-11-18T00:15:38;102058.81;;;8.15
28905;BMP280;60848;53.884;11.446;2023-11-18T00:18:08;102057.00;;;8.15
28905;BMP280;60848;53.884;11.446;2023-11-18T00:20:37;102060.38;;;8.16
28905;BMP280;60848;53.884;11.446;2023-11-18T00:23:05;102055.31;;;8.19
28905;BMP280;60848;53.884;11.446;2023-11-18T00:25:33;102060.69;;;8.23
28905;BMP280;60848;53.884;11.446;2023-11-18T00:28:03;102064.84;;;8.24
28905;BMP280;60848;53.884;11.446;2023-11-18T00:30:34;102066.03;;;8.26
28905;BMP280;60848;53.884;11.446;2023-11-18T00:33:02;102066.78;;;8.27
28905;BMP280;60848;53.884;11.446;2023-11-18T00:35:33;102071.53;;;8.25
28905;BMP280;60848;53.884;11.446;2023-11-18T00:38:01;102070.03;;;8.24
28905;BMP280;60848;53.884;11.446;2023-11-18T00:40:32;102081.38;;;8.28
28905;BMP280;60848;53.884;11.446;2023-11-18T00:43:02;102076.16;;;8.28
28905;BMP280;60848;53.884;11.446;2023-11-18T00:45:30;102085.81;;;8.27
28905;BMP280;60848;53.884;11.446;2023-11-18T00:48:02;102091.50;;;8.29
28905;BMP280;60848;53.884;11.446;2023-11-18T00:50:36;102085.97;;;8.31
28905;BMP280;60848;53.884;11.446;2023-11-18T00:53:07;102090.13;;;8.32
28905;BMP280;60848;53.884;11.446;2023-11-18T00:55:37;102089.34;;;8.31
28905;BMP280;60848;53.884;11.446;2023-11-18T00:58:07;102095.34;;;8.32
28905;BMP280;60848;53.884;11.446;2023-11-18T01:00:36;102094.56;;;8.31
28905;BMP280;60848;53.884;11.446;2023-11-18T01:03:06;102099.00;;;8.31
28905;BMP280;60848;53.884;11.446;2023-11-18T01:05:36;102099.00;;;8.31
28905;BMP280;60848;53.884;11.446;2023-11-18T01:08:06;102089.50;;;8.26
28905;BMP280;60848;53.884;11.446;2023-11-18T01:10:35;102099.78;;;8.31
28905;BMP280;60848;53.884;11.446;2023-11-18T01:13:05;102109.56;;;8.26
28905;BMP280;60848;53.884;11.446;2023-11-18T01:15:34;102108.22;;;8.20
28905;BMP280;60848;53.884;11.446;2023-11-18T01:18:02;102113.88;;;8.22
28905;BMP280;60848;53.884;11.446;2023-11-18T01:20:31;102120.47;;;8.19
28905;BMP280;60848;53.884;11.446;2023-11-18T01:23:01;102118.16;;;8.18
28905;BMP280;60848;53.884;11.446;2023-11-18T01:25:30;102123.22;;;8.14
28905;BMP280;60848;53.884;11.446;2023-11-18T01:27:58;102121.66;;;8.04
28905;BMP280;60848;53.884;11.446;2023-11-18T01:30:27;102129.47;;;8.04
28905;BMP280;60848;53.884;11.446;2023-11-18T01:32:55;102116.00;;;7.94
28905;BMP280;60848;53.884;11.446;2023-11-18T01:35:24;102121.78;;;7.82
28905;BMP280;60848;53.884;11.446;2023-11-18T01:37:53;102125.47;;;7.81
28905;BMP280;60848;53.884;11.446;2023-11-18T01:40:24;102121.50;;;7.84
28905;BMP280;60848;53.884;11.446;2023-11-18T01:42:52;102119.53;;;7.89
28905;BMP280;60848;53.884;11.446;2023-11-18T01:45:21;102121.38;;;7.97
28905;BMP280;60848;53.884;11.446;2023-11-18T01:47:50;102114.13;;;7.94
28905;BMP280;60848;53.884;11.446;2023-11-18T01:50:19;102121.06;;;7.99
28905;BMP280;60848;53.884;11.446;2023-11-18T01:52:50;102119.53;;;7.89
28905;BMP280;60848;53.884;11.446;2023-11-18T01:55:24;102123.19;;;7.88
28905;BMP280;60848;53.884;11.446;2023-11-18T01:57:53;102123.38;;;7.92
28905;BMP280;60848;53.884;11.446;2023-11-18T02:00:24;102123.03;;;7.93
28905;BMP280;60848;53.884;11.446;2023-11-18T02:02:52;102122.13;;;7.89
28905;BMP280;60848;53.884;11.446;2023-11-18T02:05:22;102112.31;;;7.95
28905;BMP280;60848;53.884;11.446;2023-11-18T02:07:50;102121.38;;;7.97
28905;BMP280;60848;53.884;11.446;2023-11-18T02:10:19;102118.16;;;8.00
28905;BMP280;60848;53.884;11.446;2023-11-18T02:12:53;102118.63;;;8.02
28905;BMP280;60848;53.884;11.446;2023-11-18T02:15:26;102116.94;;;7.98
28905;BMP280;60848;53.884;11.446;2023-11-18T02:17:56;102120.91;;;7.95
28905;BMP280;60848;53.884;11.446;2023-11-18T02:20:26;102114.81;;;8.00
28905;BMP280;60848;53.884;11.446;2023-11-18T02:22:54;102111.09;;;8.01
28905;BMP280;60848;53.884;11.446;2023-11-18T02:25:24;102121.53;;;8.01
28905;BMP280;60848;53.884;11.446;2023-11-18T02:27:58;102122.44;;;8.05
28905;BMP280;60848;53.884;11.446;2023-11-18T02:30:26;102111.25;;;8.04
28905;BMP280;60848;53.884;11.446;2023-11-18T02:33:02;102107.13;;;8.03
28905;BMP280;60848;53.884;11.446;2023-11-18T02:35:36;102112.16;;;8.08
28905;BMP280;60848;53.884;11.446;2023-11-18T02:38:04;102112.94;;;8.09
28905;BMP280;60848;53.884;11.446;2023-11-18T02:40:35;102111.13;;;8.10
28905;BMP280;60848;53.884;11.446;2023-11-18T02:43:06;102113.41;;;8.11
28905;BMP280;60848;53.884;11.446;2023-11-18T02:45:36;102113.72;;;8.10
28905;BMP280;60848;53.884;11.446;2023-11-18T02:48:07;102117.09;;;8.10
28905;BMP280;60848;53.884;11.446;2023-11-18T02:50:37;102113.72;;;8.10
28905;BMP280;60848;53.884;11.446;2023-11-18T02:53:08;102117.38;;;8.08
28905;BMP280;60848;53.884;11.446;2023-11-18T02:55:37;102111.13;;;8.10
28905;BMP280;60848;53.884;11.446;2023-11-18T02:58:09;102111.91;;;8.10
28905;BMP280;60848;53.884;11.446;2023-11-18T03:00:38;102111.91;;;8.10
28905;BMP280;60848;53.884;11.446;2023-11-18T03:03:06;102110.03;;;8.11
28905;BMP280;60848;53.884;11.446;2023-11-18T03:05:35;102114.78;;;8.08
28905;BMP280;60848;53.884;11.446;2023-11-18T03:08:04;102110.34;;;8.09
28905;BMP280;60848;53.884;11.446;2023-11-18T03:10:35;102116.16;;;8.06
28905;BMP280;60848;53.884;11.446;2023-11-18T03:13:04;102112.00;;;8.05
28905;BMP280;60848;53.884;11.446;2023-11-18T03:15:35;102123.53;;;8.04
28905;BMP280;60848;53.884;11.446;2023-11-18T03:18:04;102121.66;;;8.04
28905;BMP280;60848;53.884;11.446;2023-11-18T03:20:33;102120.91;;;8.04
28905;BMP280;60848;53.884;11.446;2023-11-18T03:23:03;102116.44;;;8.04
28905;BMP280;60848;53.884;11.446;2023-11-18T03:25:32;102126.44;;;8.02
28905;BMP280;60848;53.884;11.446;2023-11-18T03:28:03;102132.38;;;8.03
28905;BMP280;60848;53.884;11.446;2023-11-18T03:30:34;102133.16;;;8.03
28905;BMP280;60848;53.884;11.446;2023-11-18T03:33:04;102136.53;;;8.04
28905;BMP280;60848;53.884;11.446;2023-11-18T03:35:32;102132.38;;;8.03
28905;BMP280;60848;53.884;11.446;2023-11-18T03:38:01;102137.59;;;8.03
28905;BMP280;60848;53.884;11.446;2023-11-18T03:40:31;102133.78;;;8.00
28905;BMP280;60848;53.884;11.446;2023-11-18T03:43:00;102136.22;;;7.97
28905;BMP280;60848;53.884;11.446;2023-11-18T03:45:28;102130.72;;;7.98
28905;BMP280;60848;53.884;11.446;2023-11-18T03:47:58;102126.88;;;7.96
28905;BMP280;60848;53.884;11.446;2023-11-18T03:50:28;102132.25;;;7.99
28905;BMP280;60848;53.884;11.446;2023-11-18T03:52:56;102138.25;;;8.00
28905;BMP280;60848;53.884;11.446;2023-11-18T03:55:25;102125.97;;;8.00
28905;BMP280;60848;53.884;11.446;2023-11-18T03:57:54;102131.19;;;8.00
28905;BMP280;60848;53.884;11.446;2023-11-18T04:00:24;102125.97;;;8.00
28905;BMP280;60848;53.884;11.446;2023-11-18T04:02:56;102127.81;;;8.00
28905;BMP280;60848;53.884;11.446;2023-11-18T04:05:26;102135.63;;;8.00
28905;BMP280;60848;53.884;11.446;2023-11-18T04:07:56;102134.09;;;7.99
28905;BMP280;60848;53.884;11.446;2023-11-18T04:10:24;102131.00;;;7.97
28905;BMP280;60848;53.884;11.446;2023-11-18T04:12:53;102126.88;;;7.96
28905;BMP280;60848;53.884;11.446;2023-11-18T04:15:24;102133.91;;;7.95
28905;BMP280;60848;53.884;11.446;2023-11-18T04:17:56;102129.03;;;7.94
28905;BMP280;60848;53.884;11.446;2023-11-18T04:20:27;102131.91;;;7.92
28905;BMP280;60848;53.884;11.446;2023-11-18T04:22:56;102128.41;;;7.88
28905;BMP280;60848;53.884;11.446;2023-11-18T04:25:24;102131.31;;;7.87
28905;BMP280;60848;53.884;11.446;2023-11-18T04:27:52;102132.66;;;7.84
28905;BMP280;60848;53.884;11.446;2023-11-18T04:30:21;102147.25;;;7.85
28905;BMP280;60848;53.884;11.446;2023-11-18T04:32:50;102137.88;;;7.84
28905;BMP280;60848;53.884;11.446;2023-11-18T04:35:19;102140.34;;;7.81
28905;BMP280;60848;53.884;11.446;2023-11-18T04:37:51;102138.81;;;7.80
28905;BMP280;60848;53.884;11.446;2023-11-18T04:40:19;102145.38;;;7.77
28905;BMP280;60848;53.884;11.446;2023-11-18T04:42:50;102139.72;;;7.75
28905;BMP280;60848;53.884;11.446;2023-11-18T04:45:18;102151.47;;;7.73
28905;BMP280;60848;53.884;11.446;2023-11-18T04:47:47;102146.56;;;7.71
28905;BMP280;60848;53.884;11.446;2023-11-18T04:50:17;102144.28;;;7.70
28905;BMP280;60848;53.884;11.446;2023-11-18T04:52:45;102145.19;;;7.65
28905;BMP280;60848;53.884;11.446;2023-11-18T04:55:15;102145.34;;;7.69
28905;BMP280;60848;53.884;11.446;2023-11-18T04:57:44;102150.56;;;7.69
28905;BMP280;60848;53.884;11.446;2023-11-18T05:00:12;102151.94;;;7.66
28905;BMP280;60848;53.884;11.446;2023-11-18T05:02:45;102149.31;;;7.66
28905;BMP280;60848;53.884;11.446;2023-11-18T05:05:15;102153.28;;;7.64
28905;BMP280;60848;53.884;11.446;2023-11-18T05:07:44;102145.94;;;7.66
28905;BMP280;60848;53.884;11.446;2023-11-18T05:10:14;102145.78;;;7.62
28905;BMP280;60848;53.884;11.446;2023-11-18T05:12:45;102141.22;;;7.59
28905;BMP280;60848;53.884;11.446;2023-11-18T05:15:22;102141.63;;;7.53
28905;BMP280;60848;53.884;11.446;2023-11-18T05:17:52;102139.97;;;7.57
28905;BMP280;60848;53.884;11.446;2023-11-18T05:20:21;102135.63;;;7.52
28905;BMP280;60848;53.884;11.446;2023-11-18T05:22:50;102138.41;;;7.56
28905;BMP280;60848;53.884;11.446;2023-11-18T05:25:20;102135.63;;;7.52
28905;BMP280;60848;53.884;11.446;2023-11-18T05:27:48;102135.81;;;7.56
28905;BMP280;60848;53.884;11.446;2023-11-18T05:30:17;102131.84;;;7.58
28905;BMP280;60848;53.884;11.446;2023-11-18T05:32:46;102131.06;;;7.58
28905;BMP280;60848;53.884;11.446;2023-11-18T05:35:14;102133.66;;;7.58
28905;BMP280;60848;53.884;11.446;2023-11-18T05:37:43;102141.00;;;7.56
28905;BMP280;60848;53.884;11.446;2023-11-18T05:40:11;102134.75;;;7.57
28905;BMP280;60848;53.884;11.446;2023-11-18T05:42:44;102129.56;;;7.57
28905;BMP280;60848;53.884;11.446;2023-11-18T05:45:17;102130.31;;;7.57
28905;BMP280;60848;53.884;11.446;2023-11-18T05:47:55;102128.91;;;7.60
28905;BMP280;60848;53.884;11.446;2023-11-18T05:50:24;102125.13;;;7.57
28905;BMP280;60848;53.884;11.446;2023-11-18T05:52:53;102130.31;;;7.57
28905;BMP280;60848;53.884;11.446;2023-11-18T05:55:22;102129.06;;;7.55
28905;BMP280;60848;53.884;11.446;2023-11-18T05:57:52;102131.69;;;7.55
28905;BMP280;60848;53.884;11.446;2023-11-18T06:00:20;102133.81;;;7.53
28905;BMP280;60848;53.884;11.446;2023-11-18T06:03:02;102135.16;;;7.50
28905;BMP280;60848;53.884;11.446;2023-11-18T06:05:30;102132.44;;;7.47
28905;BMP280;60848;53.884;11.446;2023-11-18T06:08:02;102135.34;;;7.45
28905;BMP280;60848;53.884;11.446;2023-11-18T06:10:31;102135.34;;;7.45
28905;BMP280;60848;53.884;11.446;2023-11-18T06:13:02;102141.59;;;7.44
28905;BMP280;60848;53.884;11.446;2023-11-18T06:15:31;102135.59;;;7.44
28905;BMP280;60848;53.884;11.446;2023-11-18T06:18:03;102131.66;;;7.46
28905;BMP280;60848;53.884;11.446;2023-11-18T06:20:34;102134.25;;;7.46
28905;BMP280;60848;53.884;11.446;2023-11-18T06:23:03;102137.63;;;7.47
28905;BMP280;60848;53.884;11.446;2023-11-18T06:25:31;102140.22;;;7.47
28905;BMP280;60848;53.884;11.446;2023-11-18T06:28:03;102135.03;;;7.47
28905;BMP280;60848;53.884;11.446;2023-11-18T06:30:35;102135.03;;;7.47
28905;BMP280;60848;53.884;11.446;2023-11-18T06:33:03;102136.53;;;7.48
28905;BMP280;60848;53.884;11.446;2023-11-18T06:35:32;102133.19;;;7.47
28905;BMP280;60848;53.884;11.446;2023-11-18T06:38:02;102139.47;;;7.46
28905;BMP280;60848;53.884;11.446;2023-11-18T06:40:30;102141.28;;;7.46
28905;BMP280;60848;53.884;11.446;2023-11-18T06:42:59;102142.06;;;7.46
28905;BMP280;60848;53.884;11.446;2023-11-18T06:45:31;102149.09;;;7.46
28905;BMP280;60848;53.884;11.446;2023-11-18T06:48:00;102156.16;;;7.45
28905;BMP280;60848;53.884;11.446;2023-11-18T06:50:30;102155.06;;;7.46
28905;BMP280;60848;53.884;11.446;2023-11-18T06:52:59;102160.09;;;7.43
28905;BMP280;60848;53.884;11.446;2023-11-18T06:55:28;102163.97;;;7.45
28905;BMP280;60848;53.884;11.446;2023-11-18T06:57:58;102160.28;;;7.46
28905;BMP280;60848;53.884;11.446;2023-11-18T07:00:27;102165.94;;;7.48
28905;BMP280;60848;53.884;11.446;2023-11-18T07:02:57;102160.72;;;7.48
28905;BMP280;60848;53.884;11.446;2023-11-18T07:05:27;102163.66;;;7.47
28905;BMP280;60848;53.884;11.446;2023-11-18T07:07:56;102167.63;;;7.44
28905;BMP280;60848;53.884;11.446;2023-11-18T07:10:24;102169.91;;;7.46
28905;BMP280;60848;53.884;11.446;2023-11-18T07:12:54;102168.09;;;7.46
28905;BMP280;60848;53.884;11.446;2023-11-18T07:15:23;102169.91;;;7.46
28905;BMP280;60848;53.884;11.446;2023-11-18T07:17:51;102175.91;;;7.46
28905;BMP280;60848;53.884;11.446;2023-11-18T07:20:24;102178.19;;;7.48
28905;BMP280;60848;53.884;11.446;2023-11-18T07:22:53;102183.84;;;7.50
28905;BMP280;60848;53.884;11.446;2023-11-18T07:25:21;102179.41;;;7.50
28905;BMP280;60848;53.884;11.446;2023-11-18T07:27:50;102180.19;;;7.51
28905;BMP280;60848;53.884;11.446;2023-11-18T07:30:19;102181.72;;;7.52
28905;BMP280;60848;53.884;11.446;2023-11-18T07:32:49;102183.09;;;7.49
28905;BMP280;60848;53.884;11.446;2023-11-18T07:35:18;102182.31;;;7.49
28905;BMP280;60848;53.884;11.446;2023-11-18T07:37:50;102190.31;;;7.52
28905;BMP280;60848;53.884;11.446;2023-11-18T07:40:19;102189.53;;;7.52
28905;BMP280;60848;53.884;11.446;2023-11-18T07:42:49;102187.09;;;7.47
28905;BMP280;60848;53.884;11.446;2023-11-18T07:45:18;102198.72;;;7.49
28905;BMP280;60848;53.884;11.446;2023-11-18T07:47:46;102194.88;;;7.47
28905;BMP280;60848;53.884;11.446;2023-11-18T07:50:16;102194.41;;;7.45
28905;BMP280;60848;53.884;11.446;2023-11-18T07:52:47;102195.59;;;7.39
28905;BMP280;60848;53.884;11.446;2023-11-18T07:55:17;102188.03;;;7.29
28905;BMP280;60848;53.884;11.446;2023-11-18T07:57:46;102196.91;;;7.28
28905;BMP280;60848;53.884;11.446;2023-11-18T08:00:15;102182.50;;;7.22
28905;BMP280;60848;53.884;11.446;2023-11-18T08:02:43;102183.88;;;7.28
28905;BMP280;60848;53.884;11.446;2023-11-18T08:05:12;102180.72;;;7.31
28905;BMP280;60848;53.884;11.446;2023-11-18T08:07:45;102188.44;;;7.44
28905;BMP280;60848;53.884;11.446;2023-11-18T08:10:17;102198.13;;;7.52
28905;BMP280;60848;53.884;11.446;2023-11-18T08:12:46;102200.03;;;7.69
28905;BMP280;60848;53.884;11.446;2023-11-18T08:15:15;102216.31;;;7.83
28905;BMP280;60848;53.884;11.446;2023-11-18T08:17:44;102207.00;;;7.90
28905;BMP280;60848;53.884;11.446;2023-11-18T08:20:12;102208.38;;;7.96
28905;BMP280;60848;53.884;11.446;2023-11-18T08:22:42;102209.06;;;8.02
28905;BMP280;60848;53.884;11.446;2023-11-18T08:25:13;102216.53;;;8.03
28905;BMP280;60848;53.884;11.446;2023-11-18T08:27:44;102215.66;;;8.08
28905;BMP280;60848;53.884;11.446;2023-11-18T08:30:13;102215.06;;;8.20
28905;BMP280;60848;53.884;11.446;2023-11-18T08:32:45;102207.41;;;8.32
28905;BMP280;60848;53.884;11.446;2023-11-18T08:35:15;102202.19;;;8.40
28905;BMP280;60848;53.884;11.446;2023-11-18T08:37:44;102204.81;;;8.49
28905;BMP280;60848;53.884;11.446;2023-11-18T08:40:12;102204.19;;;8.52
28905;BMP280;60848;53.884;11.446;2023-11-18T08:42:45;102202.81;;;8.54
28905;BMP280;60848;53.884;11.446;2023-11-18T08:45:19;102209.41;;;8.52
28905;BMP280;60848;53.884;11.446;2023-11-18T08:47:49;102212.16;;;8.55
28905;BMP280;60848;53.884;11.446;2023-11-18T08:50:21;102212.16;;;8.55
28905;BMP280;60848;53.884;11.446;2023-11-18T08:52:51;102213.25;;;8.54
28905;BMP280;60848;53.884;11.446;2023-11-18T08:55:26;102215.09;;;8.54
28905;BMP280;60848;53.884;11.446;2023-11-18T08:58:09;102211.88;;;8.48
28905;BMP280;60848;53.884;11.446;2023-11-18T09:00:48;102204.63;;;8.45
28905;BMP280;60848;53.884;11.446;2023-11-18T09:03:21;102204.34;;;8.47
28905;BMP280;60848;53.884;11.446;2023-11-18T09:06:04;102207.25;;;8.45
28905;BMP280;60848;53.884;11.446;2023-11-18T09:08:36;102211.84;;;8.40
28905;BMP280;60848;53.884;11.446;2023-11-18T09:11:07;102221.50;;;8.31
28905;BMP280;60848;53.884;11.446;2023-11-18T09:13:39;102204.63;;;8.20
28905;BMP280;60848;53.884;11.446;2023-11-18T09:16:08;102209.66;;;8.07
28905;BMP280;60848;53.884;11.446;2023-11-18T09:18:38;102217.75;;;7.97
28905;BMP280;60848;53.884;11.446;2023-11-18T09:21:10;102216.78;;;7.85
28905;BMP280;60848;53.884;11.446;2023-11-18T09:23:43;102214.47;;;7.83
28905;BMP280;60848;53.884;11.446;2023-11-18T09:26:15;102214.00;;;7.81
28905;BMP280;60848;53.884;11.446;2023-11-18T09:28:45;102199.91;;;7.74
28905;BMP280;60848;53.884;11.446;2023-11-18T09:31:13;102210.75;;;7.67
28905;BMP280;60848;53.884;11.446;2023-11-18T09:33:44;102204.41;;;7.60
28905;BMP280;60848;53.884;11.446;2023-11-18T09:36:20;102200.88;;;7.47
28905;BMP280;60848;53.884;11.446;2023-11-18T09:38:50;102201.75;;;7.43
28905;BMP280;60848;53.884;11.446;2023-11-18T09:41:20;102189.03;;;7.41
28905;BMP280;60848;53.884;11.446;2023-11-18T09:43:56;102184.75;;;7.37
28905;BMP280;60848;53.884;11.446;2023-11-18T09:46:29;102191.78;;;7.36
28905;BMP280;60848;53.884;11.446;2023-11-18T09:49:06;102195.78;;;7.42
28905;BMP280;60848;53.884;11.446;2023-11-18T09:51:44;102202.81;;;7.42
28905;BMP280;60848;53.884;11.446;2023-11-18T09:54:20;102201.59;;;7.39
28905;BMP280;60848;53.884;11.446;2023-11-18T09:56:54;102191.28;;;7.34
28905;BMP280;60848;53.884;11.446;2023-11-18T09:59:30;102197.44;;;7.38
28905;BMP280;60848;53.884;11.446;2023-11-18T10:02:03;102192.13;;;7.43
28905;BMP280;60848;53.884;11.446;2023-11-18T10:04:35;102187.50;;;7.40
28905;BMP280;60848;53.884;11.446;2023-11-18T10:07:06;102183.97;;;7.36
28905;BMP280;60848;53.884;11.446;2023-11-18T10:09:37;102189.78;;;7.33
28905;BMP280;60848;53.884;11.446;2023-11-18T10:12:07;102195.72;;;7.34
28905;BMP280;60848;53.884;11.446;2023-11-18T10:14:41;102194.97;;;7.33
28905;BMP280;60848;53.884;11.446;2023-11-18T10:17:13;102191.16;;;7.39
28905;BMP280;60848;53.884;11.446;2023-11-18T10:19:51;102186.13;;;7.43
28905;BMP280;60848;53.884;11.446;2023-11-18T10:22:23;102183.22;;;7.44
28905;BMP280;60848;53.884;11.446;2023-11-18T10:24:55;102180.94;;;7.43
28905;BMP280;60848;53.884;11.446;2023-11-18T10:27:24;102170.38;;;7.48
28905;BMP280;60848;53.884;11.446;2023-11-18T10:29:58;102163.38;;;7.57
28905;BMP280;60848;53.884;11.446;2023-11-18T10:32:30;102162.47;;;7.61
28905;BMP280;60848;53.884;11.446;2023-11-18T10:35:03;102154.84;;;7.65
28905;BMP280;60848;53.884;11.446;2023-11-18T10:37:33;102157.00;;;7.71
28905;BMP280;60848;53.884;11.446;2023-11-18T10:40:10;102147.06;;;7.73
28905;BMP280;60848;53.884;11.446;2023-11-18T10:42:43;102148.47;;;7.79
28905;BMP280;60848;53.884;11.446;2023-11-18T10:45:24;102138.34;;;7.78
28905;BMP280;60848;53.884;11.446;2023-11-18T10:47:54;102135.13;;;7.81
28905;BMP280;60848;53.884;11.446;2023-11-18T10:50:25;102140.47;;;7.84
28905;BMP280;60848;53.884;11.446;2023-11-18T10:52:59;102143.56;;;7.86
28905;BMP280;60848;53.884;11.446;2023-11-18T10:55:36;102142.81;;;7.86
28905;BMP280;60848;53.884;11.446;2023-11-18T10:58:05;102146.63;;;7.88
28905;BMP280;60848;53.884;11.446;2023-11-18T11:00:48;102152.91;;;7.87
28905;BMP280;60848;53.884;11.446;2023-11-18T11:03:18;102134.69;;;7.87
28905;BMP280;60848;53.884;11.446;2023-11-18T11:05:53;102134.22;;;7.94
28905;BMP280;60848;53.884;11.446;2023-11-18T11:08:22;102128.72;;;7.95
28905;BMP280;60848;53.884;11.446;2023-11-18T11:11:05;102123.03;;;7.93
28905;BMP280;60848;53.884;11.446;2023-11-18T11:13:35;102115.38;;;7.88
28905;BMP280;60848;53.884;11.446;2023-11-18T11:16:07;102117.69;;;7.90
28905;BMP280;60848;53.884;11.446;2023-11-18T11:18:37;102112.78;;;7.88
28905;BMP280;60848;53.884;11.446;2023-11-18T11:21:14;102112.78;;;7.88
28905;BMP280;60848;53.884;11.446;2023-11-18T11:23:49;102113.53;;;7.89
28905;BMP280;60848;53.884;11.446;2023-11-18T11:26:29;102115.69;;;7.87
28905;BMP280;60848;53.884;11.446;2023-11-18T11:29:12;102116.28;;;7.92
28905;BMP280;60848;53.884;11.446;2023-11-18T11:31:48;102118.28;;;7.95
28905;BMP280;60848;53.884;11.446;2023-11-18T11:34:20;102108.03;;;7.99
28905;BMP280;60848;53.884;11.446;2023-11-18T11:36:52;102101.59;;;7.96
28905;BMP280;60848;53.884;11.446;2023-11-18T11:39:22;102101.75;;;7.91
28905;BMP280;60848;53.884;11.446;2023-11-18T11:41:53;102104.81;;;7.93
28905;BMP280;60848;53.884;11.446;2023-11-18T11:44:26;102101.59;;;7.96
28905;BMP280;60848;53.884;11.446;2023-11-18T11:46:59;102100.38;;;8.02
28905;BMP280;60848;53.884;11.446;2023-11-18T11:49:33;102094.84;;;8.04
28905;BMP280;60848;53.884;11.446;2023-11-18T11:52:07;102095.59;;;8.04
28905;BMP280;60848;53.884;11.446;2023-11-18T11:54:45;102088.72;;;8.08
28905;BMP280;60848;53.884;11.446;2023-11-18T11:57:17;102089.03;;;8.07
28905;BMP280;60848;53.884;11.446;2023-11-18T11:59:54;102081.84;;;8.13
28905;BMP280;60848;53.884;11.446;2023-11-18T12:02:25;102064.81;;;8.15
28905;BMP280;60848;53.884;11.446;2023-11-18T12:04:56;102078.94;;;8.14
28905;BMP280;60848;53.884;11.446;2023-11-18T12:07:27;102064.22;;;8.18
28905;BMP280;60848;53.884;11.446;2023-11-18T12:09:58;102079.38;;;8.16
28905;BMP280;60848;53.884;11.446;2023-11-18T12:12:27;102090.41;;;8.13
28905;BMP280;60848;53.884;11.446;2023-11-18T12:14:58;102088.72;;;8.08
28905;BMP280;60848;53.884;11.446;2023-11-18T12:20:42;102078.31;;;8.08
28905;BMP280;60848;53.884;11.446;2023-11-18T12:23:14;102074.94;;;8.08
28905;BMP280;60848;53.884;11.446;2023-11-18T12:25:45;102071.88;;;8.06
28905;BMP280;60848;53.884;11.446;2023-11-18T12:28:18;102065.44;;;8.03
28905;BMP280;60848;53.884;11.446;2023-11-18T12:30:48;102062.81;;;8.03
28905;BMP280;60848;53.884;11.446;2023-11-18T12:33:23;102061.00;;;8.04
28905;BMP280;60848;53.884;11.446;2023-11-18T12:39:27;102045.78;;;8.15
28905;BMP280;60848;53.884;11.446;2023-11-18T12:42:02;102032.03;;;8.14
28905;BMP280;60848;53.884;11.446;2023-11-18T12:44:37;102033.06;;;8.13
28905;BMP280;60848;53.884;11.446;2023-11-18T12:47:08;102036.31;;;8.19
28905;BMP280;60848;53.884;11.446;2023-11-18T12:49:46;102033.88;;;8.22
28905;BMP280;60848;53.884;11.446;2023-11-18T12:52:23;102034.16;;;8.29
28905;BMP280;60848;53.884;11.446;2023-11-18T12:54:54;102031.84;;;8.36
28905;BMP280;60848;53.884;11.446;2023-11-18T12:57:29;102025.41;;;8.42
28905;BMP280;60848;53.884;11.446;2023-11-18T12:59:59;102031.06;;;8.44
28905;BMP280;60848;53.884;11.446;2023-11-18T13:02:28;102030.75;;;8.37
28905;BMP280;60848;53.884;11.446;2023-11-18T13:05:03;102042.41;;;8.40
28905;BMP280;60848;53.884;11.446;2023-11-18T13:07:34;102031.06;;;8.44
28905;BMP280;60848;53.884;11.446;2023-11-18T13:10:04;102027.53;;;8.49
28905;BMP280;60848;53.884;11.446;2023-11-18T13:12:33;102040.56;;;8.49
28905;BMP280;60848;53.884;11.446;2023-11-18T13:15:01;102029.53;;;8.43
28905;BMP280;60848;53.884;11.446;2023-11-18T13:17:30;102032.56;;;8.45
28905;BMP280;60848;53.884;11.446;2023-11-18T13:20:12;102032.91;;;8.44
28905;BMP280;60848;53.884;11.446;2023-11-18T13:22:43;102031.81;;;8.45
28905;BMP280;60848;53.884;11.446;2023-11-18T13:25:14;102031.69;;;8.41
28905;BMP280;60848;53.884;11.446;2023-11-18T13:27:47;102032.78;;;8.40
28905;BMP280;60848;53.884;11.446;2023-11-18T13:30:15;102035.06;;;8.33
28905;BMP280;60848;53.884;11.446;2023-11-18T13:32:45;102031.84;;;8.28
28905;BMP280;60848;53.884;11.446;2023-11-18T13:35:14;102033.38;;;8.29
28905;BMP280;60848;53.884;11.446;2023-11-18T13:37:48;102029.25;;;8.28
28905;BMP280;60848;53.884;11.446;2023-11-18T13:40:17;102020.84;;;8.22
28905;BMP280;60848;53.884;11.446;2023-11-18T13:42:46;102040.31;;;8.16
28905;BMP280;60848;53.884;11.446;2023-11-18T13:45:14;102027.44;;;8.11
28905;BMP280;60848;53.884;11.446;2023-11-18T13:48:05;102025.25;;;8.13
28905;BMP280;60848;53.884;11.446;2023-11-18T13:50:34;102015.63;;;8.05
28905;BMP280;60848;53.884;11.446;2023-11-18T13:53:05;102020.38;;;8.03
28905;BMP280;60848;53.884;11.446;2023-11-18T13:55:33;102004.16;;;8.06
28905;BMP280;60848;53.884;11.446;2023-11-18T13:58:03;102013.31;;;8.03
28905;BMP280;60848;53.884;11.446;2023-11-18T14:00:32;102006.13;;;8.00
28905;BMP280;60848;53.884;11.446;2023-11-18T14:03:00;102002.78;;;8.00
28905;BMP280;60848;53.884;11.446;2023-11-18T14:05:33;102000.00;;;7.96
28905;BMP280;60848;53.884;11.446;2023-11-18T14:08:03;101995.56;;;7.88
28905;BMP280;60848;53.884;11.446;2023-11-18T14:10:38;101989.41;;;7.93
28905;BMP280;60848;53.884;11.446;2023-11-18T14:13:13;101979.94;;;7.88
28905;BMP280;60848;53.884;11.446;2023-11-18T14:15:44;101972.13;;;7.88
28905;BMP280;60848;53.884;11.446;2023-11-18T14:18:13;101960.50;;;7.86
28905;BMP280;60848;53.884;11.446;2023-11-18T14:20:42;101953.28;;;7.83
28905;BMP280;60848;53.884;11.446;2023-11-18T14:23:11;101945.47;;;7.83